Star Fuji — LAVX4 — position and weather

sailwx.info

Track history (hours):
 
Tides and Currents Weather Stations Pressure Air Temp Water Temp Dewpoint Dewpoint Depression Visibility Wind Speed Wind Dir Waves Ship Positions

Star Fuji

Last reported at 2018-Jun-19 04:25 UTC. Time now 2018-Jun-19 04:52 UTC.
Position N 34°12' W 077°57'.

Length 187 m; draft 8.1 m.

Type: Cargo ship. MMSI: 258972000.

Date/timePositionNaut miles runAvg speedWind from/ knotsBaromVisibWave heightAir tempDewpointWater temp
2018-Jun-19 04:25N 34°12' W 077°57'0 0.0
2018-Jun-19 03:58N 34°12' W 077°57'0 0.0
2018-Jun-19 02:40N 34°12' W 077°57'0 0.0
2018-Jun-19 02:30N 34°12' W 077°57'1 1.0
2018-Jun-19 02:00N 34°12' W 077°57'15811.4
2018-Jun-18 12:12N 32°04' W 079°47'712.6
2018-Jun-18 11:39N 32°03' W 079°55'312.6
2018-Jun-18 11:24N 32°02' W 079°59'612.7
2018-Jun-18 10:56N 32°01' W 080°06'813.0
2018-Jun-18 10:18N 31°59' W 080°15'613.3
2018-Jun-18 09:53N 31°58' W 080°22'713.6
2018-Jun-18 09:23N 31°57' W 080°29'513.6
2018-Jun-18 09:00N 31°57' W 080°36'713.4
2018-Jun-18 08:30N 31°58' W 080°43'612.8
2018-Jun-18 08:00N 32°02' W 080°49'612.5
2018-Jun-18 07:30N 32°03' W 080°57'5 9.0
2018-Jun-18 07:00N 32°05' W 081°01'3 6.0
2018-Jun-18 06:30N 32°05' W 081°05'1 0.1
2018-Jun-17 18:03N 32°05' W 081°06'0 0.0
2018-Jun-17 18:00N 32°05' W 081°06'0 0.0
2018-Jun-17 17:15N 32°05' W 081°06'0 0.0
2018-Jun-17 17:00N 32°05' W 081°06'0 0.0
2018-Jun-17 16:30N 32°05' W 081°06'0 0.0
2018-Jun-17 15:18N 32°05' W 081°06'0 0.0
2018-Jun-17 15:00N 32°05' W 081°06'0 0.0
2018-Jun-17 14:15N 32°05' W 081°06'0 0.0
2018-Jun-17 13:49N 32°05' W 081°06'0 0.0
2018-Jun-17 13:30N 32°05' W 081°06'0 0.0
2018-Jun-17 13:00N 32°05' W 081°06'0 0.0
2018-Jun-17 12:03N 32°05' W 081°06'0 0.1
2018-Jun-17 12:00N 32°05' W 081°06'0 0.0
2018-Jun-17 11:30N 32°05' W 081°06'0 0.0
2018-Jun-17 11:00N 32°05' W 081°06'0 0.0
2018-Jun-17 09:33N 32°05' W 081°06'0 0.0
2018-Jun-17 09:28N 32°05' W 081°06'0 0.0
2018-Jun-17 08:57N 32°05' W 081°06'0 0.0
2018-Jun-17 07:39N 32°05' W 081°06'0 0.0
2018-Jun-17 06:18N 32°05' W 081°06'0 0.0
2018-Jun-17 05:57N 32°05' W 081°06'0 0.0
2018-Jun-17 04:18N 32°05' W 081°06'0 0.0
2018-Jun-17 03:57N 32°05' W 081°06'0 0.0
2018-Jun-17 03:24N 32°05' W 081°06'0 0.0
2018-Jun-17 02:58N 32°05' W 081°06'0 0.0
2018-Jun-17 02:24N 32°05' W 081°06'0 0.0
2018-Jun-17 02:00N 32°05' W 081°06'0 0.0
2018-Jun-17 01:24N 32°05' W 081°06'0 0.0
2018-Jun-17 00:06N 32°05' W 081°06'0 0.0
2018-Jun-16 19:06N 32°05' W 081°06'0 0.0
2018-Jun-16 17:18N 32°05' W 081°06'0 0.0
2018-Jun-16 16:39N 32°05' W 081°06'0 0.0
2018-Jun-16 15:12N 32°05' W 081°06'0 0.0
2018-Jun-16 13:33N 32°05' W 081°06'0 0.0
2018-Jun-16 13:13N 32°05' W 081°06'0 0.1
2018-Jun-16 13:00N 32°05' W 081°06'2 3.5
2018-Jun-16 12:30N 32°07' W 081°07'3 6.0
2018-Jun-16 11:58N 32°05' W 081°04'4 7.7
2018-Jun-16 11:30N 32°06' W 081°00'611.7
2018-Jun-16 11:00N 32°02' W 080°55'612.0
2018-Jun-16 10:30N 32°01' W 080°48'812.8
2018-Jun-16 09:54N 31°56' W 080°41'510.8
2018-Jun-16 09:26N 31°53' W 080°37'2 3.9
2018-Jun-16 09:00N 31°52' W 080°35'4 7.9
2018-Jun-16 08:30N 31°49' W 080°32'5 8.1
2018-Jun-16 07:56N 31°46' W 080°27'3 7.6
2018-Jun-16 07:30N 31°44' W 080°25'9 7.7
2018-Jun-16 06:21N 31°35' W 080°25'412.7
2018-Jun-16 06:00N 31°31' W 080°26'813.1
2018-Jun-16 05:22N 31°23' W 080°29'  
2018-Jun-13 07:19N 26°21' W 079°27'515.6
2018-Jun-13 07:00N 26°16' W 079°27'815.5
2018-Jun-13 06:31N 26°08' W 079°28'815.5
2018-Jun-13 05:59N 26°00' W 079°29'815.5
2018-Jun-13 05:29N 25°53' W 079°30'715.5
2018-Jun-13 05:00N 25°45' W 079°31'815.5
2018-Jun-13 04:31N 25°38' W 079°32'815.5
2018-Jun-13 03:59N 25°29' W 079°33'  
Track history (hours):
 
Tides and Currents Weather Stations Pressure Air Temp Water Temp Dewpoint Dewpoint Depression Visibility Wind Speed Wind Dir Waves Ship Positions

Star Fuji

Last reported at 2018-Jun-19 04:25 UTC. Time now 2018-Jun-19 04:52 UTC.
Position N 34°12' W 077°57'.

Length 187 m; draft 8.1 m.

Type: Cargo ship. MMSI: 258972000.

Date/timePositionNaut miles runAvg speedWind from/ knotsBaromVisibWave heightAir tempDewpointWater temp
2018-Jun-19 04:25N 34°12' W 077°57'0 0.0
2018-Jun-19 03:58N 34°12' W 077°57'0 0.0
2018-Jun-19 02:40N 34°12' W 077°57'0 0.0
2018-Jun-19 02:30N 34°12' W 077°57'1 1.0
2018-Jun-19 02:00N 34°12' W 077°57'15811.4
2018-Jun-18 12:12N 32°04' W 079°47'712.6
2018-Jun-18 11:39N 32°03' W 079°55'312.6
2018-Jun-18 11:24N 32°02' W 079°59'612.7
2018-Jun-18 10:56N 32°01' W 080°06'813.0
2018-Jun-18 10:18N 31°59' W 080°15'613.3
2018-Jun-18 09:53N 31°58' W 080°22'713.6
2018-Jun-18 09:23N 31°57' W 080°29'513.6
2018-Jun-18 09:00N 31°57' W 080°36'713.4
2018-Jun-18 08:30N 31°58' W 080°43'612.8
2018-Jun-18 08:00N 32°02' W 080°49'612.5
2018-Jun-18 07:30N 32°03' W 080°57'5 9.0
2018-Jun-18 07:00N 32°05' W 081°01'3 6.0
2018-Jun-18 06:30N 32°05' W 081°05'1 0.1
2018-Jun-17 18:03N 32°05' W 081°06'0 0.0
2018-Jun-17 18:00N 32°05' W 081°06'0 0.0
2018-Jun-17 17:15N 32°05' W 081°06'0 0.0
2018-Jun-17 17:00N 32°05' W 081°06'0 0.0
2018-Jun-17 16:30N 32°05' W 081°06'0 0.0
2018-Jun-17 15:18N 32°05' W 081°06'0 0.0
2018-Jun-17 15:00N 32°05' W 081°06'0 0.0
2018-Jun-17 14:15N 32°05' W 081°06'0 0.0
2018-Jun-17 13:49N 32°05' W 081°06'0 0.0
2018-Jun-17 13:30N 32°05' W 081°06'0 0.0
2018-Jun-17 13:00N 32°05' W 081°06'0 0.0
2018-Jun-17 12:03N 32°05' W 081°06'0 0.1
2018-Jun-17 12:00N 32°05' W 081°06'0 0.0
2018-Jun-17 11:30N 32°05' W 081°06'0 0.0
2018-Jun-17 11:00N 32°05' W 081°06'0 0.0
2018-Jun-17 09:33N 32°05' W 081°06'0 0.0
2018-Jun-17 09:28N 32°05' W 081°06'0 0.0
2018-Jun-17 08:57N 32°05' W 081°06'0 0.0
2018-Jun-17 07:39N 32°05' W 081°06'0 0.0
2018-Jun-17 06:18N 32°05' W 081°06'0 0.0
2018-Jun-17 05:57N 32°05' W 081°06'0 0.0
2018-Jun-17 04:18N 32°05' W 081°06'0 0.0
2018-Jun-17 03:57N 32°05' W 081°06'0 0.0
2018-Jun-17 03:24N 32°05' W 081°06'0 0.0
2018-Jun-17 02:58N 32°05' W 081°06'0 0.0
2018-Jun-17 02:24N 32°05' W 081°06'0 0.0
2018-Jun-17 02:00N 32°05' W 081°06'0 0.0
2018-Jun-17 01:24N 32°05' W 081°06'0 0.0
2018-Jun-17 00:06N 32°05' W 081°06'0 0.0
2018-Jun-16 19:06N 32°05' W 081°06'0 0.0
2018-Jun-16 17:18N 32°05' W 081°06'0 0.0
2018-Jun-16 16:39N 32°05' W 081°06'0 0.0
2018-Jun-16 15:12N 32°05' W 081°06'0 0.0
2018-Jun-16 13:33N 32°05' W 081°06'0 0.0
2018-Jun-16 13:13N 32°05' W 081°06'0 0.1
2018-Jun-16 13:00N 32°05' W 081°06'2 3.5
2018-Jun-16 12:30N 32°07' W 081°07'3 6.0
2018-Jun-16 11:58N 32°05' W 081°04'4 7.7
2018-Jun-16 11:30N 32°06' W 081°00'611.7
2018-Jun-16 11:00N 32°02' W 080°55'612.0
2018-Jun-16 10:30N 32°01' W 080°48'812.8
2018-Jun-16 09:54N 31°56' W 080°41'510.8
2018-Jun-16 09:26N 31°53' W 080°37'2 3.9
2018-Jun-16 09:00N 31°52' W 080°35'4 7.9
2018-Jun-16 08:30N 31°49' W 080°32'5 8.1
2018-Jun-16 07:56N 31°46' W 080°27'3 7.6
2018-Jun-16 07:30N 31°44' W 080°25'9 7.7
2018-Jun-16 06:21N 31°35' W 080°25'412.7
2018-Jun-16 06:00N 31°31' W 080°26'813.1
2018-Jun-16 05:22N 31°23' W 080°29'  
2018-Jun-13 07:19N 26°21' W 079°27'515.6
2018-Jun-13 07:00N 26°16' W 079°27'815.5
2018-Jun-13 06:31N 26°08' W 079°28'815.5
2018-Jun-13 05:59N 26°00' W 079°29'815.5
2018-Jun-13 05:29N 25°53' W 079°30'715.5
2018-Jun-13 05:00N 25°45' W 079°31'815.5
2018-Jun-13 04:31N 25°38' W 079°32'815.5
2018-Jun-13 03:59N 25°29' W 079°33'  

Dump ship's entire track history